sensor_id;sensor_type;location;lat;lon;timestamp;P1;durP1;ratioP1;P2;durP2;ratioP2
20283;SDS011;10301;50.832;4.080;2024-03-06T00:01:16;13.00;;;6.63;;
20283;SDS011;10301;50.832;4.080;2024-03-06T00:03:41;10.20;;;6.67;;
20283;SDS011;10301;50.832;4.080;2024-03-06T00:06:07;10.90;;;6.90;;
20283;SDS011;10301;50.832;4.080;2024-03-06T00:08:33;9.57;;;6.27;;
20283;SDS011;10301;50.832;4.080;2024-03-06T00:10:59;11.47;;;6.27;;
20283;SDS011;10301;50.832;4.080;2024-03-06T00:13:25;10.80;;;6.67;;
20283;SDS011;10301;50.832;4.080;2024-03-06T00:15:51;11.70;;;7.03;;
20283;SDS011;10301;50.832;4.080;2024-03-06T00:18:16;9.17;;;6.03;;
20283;SDS011;10301;50.832;4.080;2024-03-06T00:20:42;10.33;;;7.33;;
20283;SDS011;10301;50.832;4.080;2024-03-06T00:23:09;11.13;;;6.37;;
20283;SDS011;10301;50.832;4.080;2024-03-06T00:25:35;9.87;;;6.70;;
20283;SDS011;10301;50.832;4.080;2024-03-06T00:28:01;11.00;;;6.73;;
20283;SDS011;10301;50.832;4.080;2024-03-06T00:30:27;9.47;;;6.60;;
20283;SDS011;10301;50.832;4.080;2024-03-06T00:32:52;10.73;;;6.77;;
20283;SDS011;10301;50.832;4.080;2024-03-06T00:35:18;10.20;;;6.47;;
20283;SDS011;10301;50.832;4.080;2024-03-06T00:37:44;10.27;;;6.57;;
20283;SDS011;10301;50.832;4.080;2024-03-06T00:40:10;9.33;;;6.20;;
20283;SDS011;10301;50.832;4.080;2024-03-06T00:42:37;9.13;;;6.00;;
20283;SDS011;10301;50.832;4.080;2024-03-06T00:45:03;12.17;;;6.43;;
20283;SDS011;10301;50.832;4.080;2024-03-06T00:47:29;12.30;;;7.07;;
20283;SDS011;10301;50.832;4.080;2024-03-06T00:49:54;9.43;;;6.37;;
20283;SDS011;10301;50.832;4.080;2024-03-06T00:52:20;11.33;;;7.40;;
20283;SDS011;10301;50.832;4.080;2024-03-06T00:54:46;10.97;;;7.13;;
20283;SDS011;10301;50.832;4.080;2024-03-06T00:57:11;11.47;;;6.93;;
20283;SDS011;10301;50.832;4.080;2024-03-06T00:59:37;12.27;;;6.70;;
20283;SDS011;10301;50.832;4.080;2024-03-06T01:02:02;10.80;;;6.30;;
20283;SDS011;10301;50.832;4.080;2024-03-06T01:04:28;10.77;;;6.57;;
20283;SDS011;10301;50.832;4.080;2024-03-06T01:06:54;10.87;;;7.40;;
20283;SDS011;10301;50.832;4.080;2024-03-06T01:09:20;11.23;;;7.00;;
20283;SDS011;10301;50.832;4.080;2024-03-06T01:11:48;10.53;;;6.57;;
20283;SDS011;10301;50.832;4.080;2024-03-06T01:14:13;11.60;;;7.30;;
20283;SDS011;10301;50.832;4.080;2024-03-06T01:16:39;11.80;;;7.03;;
20283;SDS011;10301;50.832;4.080;2024-03-06T01:19:05;11.03;;;6.63;;
20283;SDS011;10301;50.832;4.080;2024-03-06T01:21:30;10.33;;;6.90;;
20283;SDS011;10301;50.832;4.080;2024-03-06T01:23:57;12.10;;;7.33;;
20283;SDS011;10301;50.832;4.080;2024-03-06T01:26:23;12.23;;;7.30;;
20283;SDS011;10301;50.832;4.080;2024-03-06T01:28:48;11.07;;;7.37;;
20283;SDS011;10301;50.832;4.080;2024-03-06T01:31:14;11.47;;;7.60;;
20283;SDS011;10301;50.832;4.080;2024-03-06T01:33:39;11.27;;;7.43;;
20283;SDS011;10301;50.832;4.080;2024-03-06T01:36:05;9.87;;;7.00;;
20283;SDS011;10301;50.832;4.080;2024-03-06T01:38:31;11.30;;;7.63;;
20283;SDS011;10301;50.832;4.080;2024-03-06T01:40:56;9.80;;;6.73;;
20283;SDS011;10301;50.832;4.080;2024-03-06T01:43:23;14.43;;;8.27;;
20283;SDS011;10301;50.832;4.080;2024-03-06T01:45:49;13.10;;;8.27;;
20283;SDS011;10301;50.832;4.080;2024-03-06T01:48:16;12.47;;;8.37;;
20283;SDS011;10301;50.832;4.080;2024-03-06T01:50:42;13.00;;;8.47;;
20283;SDS011;10301;50.832;4.080;2024-03-06T01:53:09;11.40;;;8.00;;
20283;SDS011;10301;50.832;4.080;2024-03-06T01:55:35;13.00;;;8.47;;
20283;SDS011;10301;50.832;4.080;2024-03-06T01:58:02;12.37;;;7.93;;
20283;SDS011;10301;50.832;4.080;2024-03-06T02:00:27;13.40;;;8.77;;
20283;SDS011;10301;50.832;4.080;2024-03-06T02:02:53;14.70;;;9.40;;
20283;SDS011;10301;50.832;4.080;2024-03-06T02:05:19;12.33;;;8.53;;
20283;SDS011;10301;50.832;4.080;2024-03-06T02:07:45;15.63;;;8.40;;
20283;SDS011;10301;50.832;4.080;2024-03-06T02:10:12;13.73;;;8.50;;
20283;SDS011;10301;50.832;4.080;2024-03-06T02:12:38;12.47;;;9.47;;
20283;SDS011;10301;50.832;4.080;2024-03-06T02:15:04;11.67;;;8.70;;
20283;SDS011;10301;50.832;4.080;2024-03-06T02:17:30;12.83;;;8.73;;
20283;SDS011;10301;50.832;4.080;2024-03-06T02:19:56;12.53;;;8.70;;
20283;SDS011;10301;50.832;4.080;2024-03-06T02:22:23;13.27;;;8.83;;
20283;SDS011;10301;50.832;4.080;2024-03-06T02:24:49;13.10;;;8.40;;
20283;SDS011;10301;50.832;4.080;2024-03-06T02:27:14;13.90;;;9.33;;
20283;SDS011;10301;50.832;4.080;2024-03-06T02:29:41;13.77;;;9.77;;
20283;SDS011;10301;50.832;4.080;2024-03-06T02:32:07;13.77;;;8.87;;
20283;SDS011;10301;50.832;4.080;2024-03-06T02:34:33;13.20;;;8.97;;
20283;SDS011;10301;50.832;4.080;2024-03-06T02:36:59;13.10;;;8.70;;
20283;SDS011;10301;50.832;4.080;2024-03-06T02:39:24;12.30;;;8.73;;
20283;SDS011;10301;50.832;4.080;2024-03-06T02:41:50;14.43;;;8.80;;
20283;SDS011;10301;50.832;4.080;2024-03-06T02:44:16;12.93;;;9.13;;
20283;SDS011;10301;50.832;4.080;2024-03-06T02:46:45;12.87;;;8.80;;
20283;SDS011;10301;50.832;4.080;2024-03-06T02:49:14;16.30;;;8.83;;
20283;SDS011;10301;50.832;4.080;2024-03-06T02:51:41;13.47;;;9.20;;
20283;SDS011;10301;50.832;4.080;2024-03-06T02:54:07;13.43;;;9.17;;
20283;SDS011;10301;50.832;4.080;2024-03-06T02:56:32;12.97;;;8.93;;
20283;SDS011;10301;50.832;4.080;2024-03-06T02:58:58;13.30;;;9.03;;
20283;SDS011;10301;50.832;4.080;2024-03-06T03:01:27;13.70;;;9.33;;
20283;SDS011;10301;50.832;4.080;2024-03-06T03:03:53;13.10;;;8.50;;
20283;SDS011;10301;50.832;4.080;2024-03-06T03:06:19;13.30;;;9.33;;
20283;SDS011;10301;50.832;4.080;2024-03-06T03:08:44;14.57;;;9.17;;
20283;SDS011;10301;50.832;4.080;2024-03-06T03:11:10;13.20;;;8.93;;
20283;SDS011;10301;50.832;4.080;2024-03-06T03:13:35;13.97;;;9.23;;
20283;SDS011;10301;50.832;4.080;2024-03-06T03:16:01;13.50;;;9.50;;
20283;SDS011;10301;50.832;4.080;2024-03-06T03:18:29;13.67;;;9.13;;
20283;SDS011;10301;50.832;4.080;2024-03-06T03:20:54;13.30;;;9.77;;
20283;SDS011;10301;50.832;4.080;2024-03-06T03:23:20;13.63;;;9.07;;
20283;SDS011;10301;50.832;4.080;2024-03-06T03:25:47;16.80;;;9.17;;
20283;SDS011;10301;50.832;4.080;2024-03-06T03:28:16;14.10;;;9.40;;
20283;SDS011;10301;50.832;4.080;2024-03-06T03:30:45;14.53;;;9.37;;
20283;SDS011;10301;50.832;4.080;2024-03-06T03:33:10;14.87;;;9.27;;
20283;SDS011;10301;50.832;4.080;2024-03-06T03:35:36;15.97;;;9.53;;
20283;SDS011;10301;50.832;4.080;2024-03-06T03:38:02;15.10;;;9.57;;
20283;SDS011;10301;50.832;4.080;2024-03-06T03:40:28;15.13;;;9.23;;
20283;SDS011;10301;50.832;4.080;2024-03-06T03:42:54;13.10;;;9.23;;
20283;SDS011;10301;50.832;4.080;2024-03-06T03:45:19;15.17;;;9.83;;
20283;SDS011;10301;50.832;4.080;2024-03-06T03:47:45;13.70;;;9.47;;
20283;SDS011;10301;50.832;4.080;2024-03-06T03:50:11;16.37;;;10.80;;
20283;SDS011;10301;50.832;4.080;2024-03-06T03:52:37;16.33;;;10.80;;
20283;SDS011;10301;50.832;4.080;2024-03-06T03:55:06;15.20;;;10.07;;
20283;SDS011;10301;50.832;4.080;2024-03-06T03:57:32;14.90;;;9.90;;
20283;SDS011;10301;50.832;4.080;2024-03-06T03:59:58;15.63;;;10.07;;
20283;SDS011;10301;50.832;4.080;2024-03-06T04:02:24;15.57;;;11.03;;
20283;SDS011;10301;50.832;4.080;2024-03-06T04:04:50;14.20;;;10.10;;
20283;SDS011;10301;50.832;4.080;2024-03-06T04:07:15;13.80;;;9.87;;
20283;SDS011;10301;50.832;4.080;2024-03-06T04:09:43;14.00;;;10.33;;
20283;SDS011;10301;50.832;4.080;2024-03-06T04:12:09;14.47;;;10.07;;
20283;SDS011;10301;50.832;4.080;2024-03-06T04:14:35;14.23;;;9.83;;
20283;SDS011;10301;50.832;4.080;2024-03-06T04:17:01;15.03;;;11.10;;
20283;SDS011;10301;50.832;4.080;2024-03-06T04:19:28;15.60;;;10.87;;
20283;SDS011;10301;50.832;4.080;2024-03-06T04:21:54;14.10;;;8.47;;
20283;SDS011;10301;50.832;4.080;2024-03-06T04:24:20;13.93;;;9.57;;
20283;SDS011;10301;50.832;4.080;2024-03-06T04:26:45;15.07;;;9.43;;
20283;SDS011;10301;50.832;4.080;2024-03-06T04:29:11;14.10;;;9.47;;
20283;SDS011;10301;50.832;4.080;2024-03-06T04:31:37;15.03;;;9.47;;
20283;SDS011;10301;50.832;4.080;2024-03-06T04:34:02;16.53;;;9.30;;
20283;SDS011;10301;50.832;4.080;2024-03-06T04:36:28;13.43;;;9.37;;
20283;SDS011;10301;50.832;4.080;2024-03-06T04:38:54;13.23;;;9.27;;
20283;SDS011;10301;50.832;4.080;2024-03-06T04:41:19;14.23;;;8.83;;
20283;SDS011;10301;50.832;4.080;2024-03-06T04:43:45;14.30;;;9.10;;
20283;SDS011;10301;50.832;4.080;2024-03-06T04:46:14;14.07;;;9.43;;
20283;SDS011;10301;50.832;4.080;2024-03-06T04:48:39;17.20;;;11.27;;
20283;SDS011;10301;50.832;4.080;2024-03-06T04:51:05;15.43;;;9.70;;
20283;SDS011;10301;50.832;4.080;2024-03-06T04:53:31;14.07;;;10.47;;
20283;SDS011;10301;50.832;4.080;2024-03-06T04:55:56;14.80;;;10.17;;
20283;SDS011;10301;50.832;4.080;2024-03-06T04:58:22;16.60;;;10.27;;
20283;SDS011;10301;50.832;4.080;2024-03-06T05:00:47;14.53;;;10.00;;
20283;SDS011;10301;50.832;4.080;2024-03-06T05:03:13;15.33;;;10.73;;
20283;SDS011;10301;50.832;4.080;2024-03-06T05:05:40;17.30;;;9.60;;
20283;SDS011;10301;50.832;4.080;2024-03-06T05:08:06;14.40;;;10.30;;
20283;SDS011;10301;50.832;4.080;2024-03-06T05:10:32;15.80;;;10.17;;
20283;SDS011;10301;50.832;4.080;2024-03-06T05:12:57;13.77;;;10.83;;
20283;SDS011;10301;50.832;4.080;2024-03-06T05:15:23;14.47;;;9.43;;
20283;SDS011;10301;50.832;4.080;2024-03-06T05:17:49;15.47;;;10.43;;
20283;SDS011;10301;50.832;4.080;2024-03-06T05:20:14;18.30;;;10.80;;
20283;SDS011;10301;50.832;4.080;2024-03-06T05:22:41;15.47;;;10.07;;
20283;SDS011;10301;50.832;4.080;2024-03-06T05:25:07;16.27;;;11.20;;
20283;SDS011;10301;50.832;4.080;2024-03-06T05:27:33;18.17;;;12.53;;
20283;SDS011;10301;50.832;4.080;2024-03-06T05:29:59;18.67;;;12.87;;
20283;SDS011;10301;50.832;4.080;2024-03-06T05:32:24;17.07;;;12.23;;
20283;SDS011;10301;50.832;4.080;2024-03-06T05:34:50;17.80;;;13.30;;
20283;SDS011;10301;50.832;4.080;2024-03-06T05:37:16;15.23;;;11.13;;
20283;SDS011;10301;50.832;4.080;2024-03-06T05:39:42;17.50;;;11.67;;
20283;SDS011;10301;50.832;4.080;2024-03-06T05:42:08;15.97;;;10.80;;
20283;SDS011;10301;50.832;4.080;2024-03-06T05:44:34;19.13;;;10.77;;
20283;SDS011;10301;50.832;4.080;2024-03-06T05:47:00;19.17;;;13.83;;
20283;SDS011;10301;50.832;4.080;2024-03-06T05:49:26;17.10;;;11.70;;
20283;SDS011;10301;50.832;4.080;2024-03-06T05:51:52;19.53;;;12.53;;
20283;SDS011;10301;50.832;4.080;2024-03-06T05:54:21;20.90;;;12.10;;
20283;SDS011;10301;50.832;4.080;2024-03-06T05:56:51;18.10;;;12.70;;
20283;SDS011;10301;50.832;4.080;2024-03-06T05:59:18;18.37;;;12.67;;
20283;SDS011;10301;50.832;4.080;2024-03-06T06:01:44;16.90;;;10.93;;
20283;SDS011;10301;50.832;4.080;2024-03-06T06:04:10;16.77;;;10.33;;
20283;SDS011;10301;50.832;4.080;2024-03-06T06:06:36;19.50;;;11.80;;
20283;SDS011;10301;50.832;4.080;2024-03-06T06:09:02;18.33;;;10.87;;
20283;SDS011;10301;50.832;4.080;2024-03-06T06:11:31;17.73;;;10.63;;
20283;SDS011;10301;50.832;4.080;2024-03-06T06:13:58;22.00;;;11.87;;
20283;SDS011;10301;50.832;4.080;2024-03-06T06:16:24;15.90;;;11.10;;
20283;SDS011;10301;50.832;4.080;2024-03-06T06:18:50;16.40;;;11.20;;
20283;SDS011;10301;50.832;4.080;2024-03-06T06:21:15;18.27;;;12.40;;
20283;SDS011;10301;50.832;4.080;2024-03-06T06:23:41;15.60;;;10.53;;
20283;SDS011;10301;50.832;4.080;2024-03-06T06:26:08;26.60;;;11.90;;
20283;SDS011;10301;50.832;4.080;2024-03-06T06:28:35;18.47;;;11.40;;
20283;SDS011;10301;50.832;4.080;2024-03-06T06:31:02;19.60;;;12.80;;
20283;SDS011;10301;50.832;4.080;2024-03-06T06:33:29;26.10;;;23.43;;
20283;SDS011;10301;50.832;4.080;2024-03-06T06:35:55;19.70;;;11.83;;
20283;SDS011;10301;50.832;4.080;2024-03-06T06:38:20;18.20;;;11.07;;
20283;SDS011;10301;50.832;4.080;2024-03-06T06:40:46;17.17;;;12.27;;
20283;SDS011;10301;50.832;4.080;2024-03-06T06:43:13;19.77;;;12.00;;
20283;SDS011;10301;50.832;4.080;2024-03-06T06:45:38;16.07;;;10.47;;
20283;SDS011;10301;50.832;4.080;2024-03-06T06:48:04;15.77;;;11.00;;
20283;SDS011;10301;50.832;4.080;2024-03-06T06:50:30;17.00;;;11.70;;
20283;SDS011;10301;50.832;4.080;2024-03-06T06:52:58;18.33;;;11.33;;
20283;SDS011;10301;50.832;4.080;2024-03-06T06:55:24;19.43;;;11.63;;
20283;SDS011;10301;50.832;4.080;2024-03-06T06:57:50;18.20;;;11.33;;
20283;SDS011;10301;50.832;4.080;2024-03-06T07:00:16;18.03;;;11.67;;
20283;SDS011;10301;50.832;4.080;2024-03-06T07:02:43;17.40;;;11.87;;
20283;SDS011;10301;50.832;4.080;2024-03-06T07:05:10;19.77;;;12.00;;
20283;SDS011;10301;50.832;4.080;2024-03-06T07:07:36;20.27;;;12.83;;
20283;SDS011;10301;50.832;4.080;2024-03-06T07:10:03;18.93;;;12.73;;
20283;SDS011;10301;50.832;4.080;2024-03-06T07:12:29;24.47;;;13.33;;
20283;SDS011;10301;50.832;4.080;2024-03-06T07:14:55;20.83;;;12.57;;
20283;SDS011;10301;50.832;4.080;2024-03-06T07:17:21;18.10;;;12.20;;
20283;SDS011;10301;50.832;4.080;2024-03-06T07:19:47;20.13;;;11.23;;
20283;SDS011;10301;50.832;4.080;2024-03-06T07:22:13;18.90;;;11.60;;
20283;SDS011;10301;50.832;4.080;2024-03-06T07:24:39;18.67;;;11.57;;
20283;SDS011;10301;50.832;4.080;2024-03-06T07:27:06;19.03;;;11.77;;
20283;SDS011;10301;50.832;4.080;2024-03-06T07:29:33;20.43;;;12.20;;
20283;SDS011;10301;50.832;4.080;2024-03-06T07:32:00;20.60;;;11.03;;
20283;SDS011;10301;50.832;4.080;2024-03-06T07:34:26;19.10;;;11.43;;
20283;SDS011;10301;50.832;4.080;2024-03-06T07:36:52;16.57;;;11.33;;
20283;SDS011;10301;50.832;4.080;2024-03-06T07:39:21;16.57;;;11.10;;
20283;SDS011;10301;50.832;4.080;2024-03-06T07:41:47;19.57;;;10.63;;
20283;SDS011;10301;50.832;4.080;2024-03-06T07:44:13;16.47;;;10.50;;
20283;SDS011;10301;50.832;4.080;2024-03-06T07:46:38;16.50;;;9.77;;
20283;SDS011;10301;50.832;4.080;2024-03-06T07:49:04;14.00;;;9.30;;
20283;SDS011;10301;50.832;4.080;2024-03-06T07:51:33;16.87;;;10.30;;
20283;SDS011;10301;50.832;4.080;2024-03-06T07:53:59;17.17;;;10.47;;
20283;SDS011;10301;50.832;4.080;2024-03-06T07:56:25;22.83;;;11.03;;
20283;SDS011;10301;50.832;4.080;2024-03-06T07:58:52;16.57;;;10.03;;
20283;SDS011;10301;50.832;4.080;2024-03-06T08:01:18;16.93;;;10.17;;
20283;SDS011;10301;50.832;4.080;2024-03-06T08:03:45;20.70;;;10.40;;
20283;SDS011;10301;50.832;4.080;2024-03-06T08:06:11;16.73;;;10.30;;
20283;SDS011;10301;50.832;4.080;2024-03-06T08:08:40;16.37;;;10.13;;
20283;SDS011;10301;50.832;4.080;2024-03-06T08:11:07;18.63;;;10.63;;
20283;SDS011;10301;50.832;4.080;2024-03-06T08:13:35;18.77;;;10.20;;
20283;SDS011;10301;50.832;4.080;2024-03-06T08:16:01;17.00;;;10.27;;
20283;SDS011;10301;50.832;4.080;2024-03-06T08:18:26;17.40;;;10.23;;
20283;SDS011;10301;50.832;4.080;2024-03-06T08:20:52;17.83;;;10.63;;
20283;SDS011;10301;50.832;4.080;2024-03-06T08:23:18;17.07;;;10.70;;
20283;SDS011;10301;50.832;4.080;2024-03-06T08:25:43;16.27;;;10.57;;
20283;SDS011;10301;50.832;4.080;2024-03-06T08:28:10;16.97;;;10.47;;
20283;SDS011;10301;50.832;4.080;2024-03-06T08:30:35;19.83;;;10.53;;
20283;SDS011;10301;50.832;4.080;2024-03-06T08:33:01;15.73;;;10.40;;
20283;SDS011;10301;50.832;4.080;2024-03-06T08:35:26;19.40;;;11.47;;
20283;SDS011;10301;50.832;4.080;2024-03-06T08:37:52;16.77;;;10.43;;
20283;SDS011;10301;50.832;4.080;2024-03-06T08:40:18;15.33;;;10.13;;
20283;SDS011;10301;50.832;4.080;2024-03-06T08:42:44;18.60;;;10.10;;
20283;SDS011;10301;50.832;4.080;2024-03-06T08:45:12;18.67;;;11.57;;
20283;SDS011;10301;50.832;4.080;2024-03-06T08:47:39;16.93;;;10.17;;
20283;SDS011;10301;50.832;4.080;2024-03-06T08:50:05;15.53;;;10.23;;
20283;SDS011;10301;50.832;4.080;2024-03-06T08:52:32;17.40;;;11.37;;
20283;SDS011;10301;50.832;4.080;2024-03-06T08:55:01;17.07;;;11.47;;
20283;SDS011;10301;50.832;4.080;2024-03-06T08:57:33;17.33;;;11.00;;
20283;SDS011;10301;50.832;4.080;2024-03-06T08:59:59;16.67;;;10.57;;
20283;SDS011;10301;50.832;4.080;2024-03-06T09:02:25;16.03;;;11.40;;
20283;SDS011;10301;50.832;4.080;2024-03-06T09:04:52;16.20;;;10.37;;
20283;SDS011;10301;50.832;4.080;2024-03-06T09:07:18;16.07;;;10.20;;
20283;SDS011;10301;50.832;4.080;2024-03-06T09:09:44;19.13;;;11.87;;
20283;SDS011;10301;50.832;4.080;2024-03-06T09:12:10;17.73;;;10.87;;
20283;SDS011;10301;50.832;4.080;2024-03-06T09:14:37;17.43;;;11.43;;
20283;SDS011;10301;50.832;4.080;2024-03-06T09:17:04;14.43;;;10.10;;
20283;SDS011;10301;50.832;4.080;2024-03-06T09:19:30;16.30;;;10.60;;
20283;SDS011;10301;50.832;4.080;2024-03-06T09:21:56;16.50;;;10.17;;
20283;SDS011;10301;50.832;4.080;2024-03-06T09:24:22;18.93;;;11.00;;
20283;SDS011;10301;50.832;4.080;2024-03-06T09:26:50;18.07;;;10.80;;
20283;SDS011;10301;50.832;4.080;2024-03-06T09:29:16;17.93;;;10.53;;
20283;SDS011;10301;50.832;4.080;2024-03-06T09:31:42;16.77;;;10.57;;
20283;SDS011;10301;50.832;4.080;2024-03-06T09:34:08;19.93;;;10.37;;
20283;SDS011;10301;50.832;4.080;2024-03-06T09:36:40;18.03;;;10.40;;
20283;SDS011;10301;50.832;4.080;2024-03-06T09:39:14;15.17;;;10.73;;
20283;SDS011;10301;50.832;4.080;2024-03-06T09:41:44;18.17;;;10.77;;
20283;SDS011;10301;50.832;4.080;2024-03-06T09:44:11;20.03;;;10.97;;
20283;SDS011;10301;50.832;4.080;2024-03-06T09:46:37;18.13;;;10.63;;
20283;SDS011;10301;50.832;4.080;2024-03-06T09:49:02;15.57;;;10.10;;
20283;SDS011;10301;50.832;4.080;2024-03-06T09:51:29;17.20;;;10.90;;
20283;SDS011;10301;50.832;4.080;2024-03-06T09:53:55;15.70;;;9.63;;
20283;SDS011;10301;50.832;4.080;2024-03-06T09:56:21;14.17;;;9.67;;
20283;SDS011;10301;50.832;4.080;2024-03-06T09:58:47;15.17;;;10.67;;
20283;SDS011;10301;50.832;4.080;2024-03-06T10:01:12;16.03;;;10.03;;
20283;SDS011;10301;50.832;4.080;2024-03-06T10:03:40;17.77;;;10.87;;
20283;SDS011;10301;50.832;4.080;2024-03-06T10:06:09;14.67;;;8.77;;
20283;SDS011;10301;50.832;4.080;2024-03-06T10:08:35;13.80;;;8.90;;
20283;SDS011;10301;50.832;4.080;2024-03-06T10:11:02;13.97;;;8.50;;
20283;SDS011;10301;50.832;4.080;2024-03-06T10:13:28;13.57;;;8.57;;
20283;SDS011;10301;50.832;4.080;2024-03-06T10:16:02;12.90;;;8.70;;
20283;SDS011;10301;50.832;4.080;2024-03-06T10:18:30;12.30;;;7.50;;
20283;SDS011;10301;50.832;4.080;2024-03-06T10:20:57;12.00;;;7.67;;
20283;SDS011;10301;50.832;4.080;2024-03-06T10:23:23;14.40;;;8.70;;
20283;SDS011;10301;50.832;4.080;2024-03-06T10:25:50;12.63;;;8.17;;
20283;SDS011;10301;50.832;4.080;2024-03-06T10:28:17;14.77;;;8.57;;
20283;SDS011;10301;50.832;4.080;2024-03-06T10:30:44;12.03;;;7.33;;
20283;SDS011;10301;50.832;4.080;2024-03-06T10:33:14;12.17;;;7.53;;
20283;SDS011;10301;50.832;4.080;2024-03-06T10:35:41;12.10;;;8.43;;
20283;SDS011;10301;50.832;4.080;2024-03-06T10:38:09;11.17;;;7.67;;
20283;SDS011;10301;50.832;4.080;2024-03-06T10:40:42;10.90;;;7.20;;
20283;SDS011;10301;50.832;4.080;2024-03-06T10:43:08;10.68;;;6.88;;
20283;SDS011;10301;50.832;4.080;2024-03-06T10:48:14;12.65;;;7.40;;
20283;SDS011;10301;50.832;4.080;2024-03-06T10:50:41;12.77;;;7.00;;
20283;SDS011;10301;50.832;4.080;2024-03-06T10:53:09;15.00;;;7.50;;
20283;SDS011;10301;50.832;4.080;2024-03-06T10:55:36;13.67;;;8.27;;
20283;SDS011;10301;50.832;4.080;2024-03-06T10:58:05;13.45;;;8.40;;
20283;SDS011;10301;50.832;4.080;2024-03-06T11:00:37;12.98;;;8.52;;
20283;SDS011;10301;50.832;4.080;2024-03-06T11:03:05;12.98;;;8.55;;
20283;SDS011;10301;50.832;4.080;2024-03-06T11:05:34;14.18;;;8.10;;
20283;SDS011;10301;50.832;4.080;2024-03-06T11:10:36;16.70;;;8.38;;
20283;SDS011;10301;50.832;4.080;2024-03-06T11:13:25;14.65;;;7.78;;
20283;SDS011;10301;50.832;4.080;2024-03-06T11:15:51;14.00;;;8.88;;
20283;SDS011;10301;50.832;4.080;2024-03-06T11:20:58;13.55;;;8.48;;
20283;SDS011;10301;50.832;4.080;2024-03-06T11:26:49;12.35;;;7.28;;
20283;SDS011;10301;50.832;4.080;2024-03-06T11:32:56;11.68;;;7.40;;
20283;SDS011;10301;50.832;4.080;2024-03-06T11:35:23;13.07;;;8.30;;
20283;SDS011;10301;50.832;4.080;2024-03-06T11:37:49;20.95;;;7.88;;
20283;SDS011;10301;50.832;4.080;2024-03-06T11:40:22;12.55;;;7.57;;
20283;SDS011;10301;50.832;4.080;2024-03-06T11:42:49;12.90;;;7.93;;
20283;SDS011;10301;50.832;4.080;2024-03-06T11:45:18;14.52;;;8.02;;
20283;SDS011;10301;50.832;4.080;2024-03-06T11:47:59;12.48;;;8.18;;
20283;SDS011;10301;50.832;4.080;2024-03-06T11:50:26;13.65;;;8.18;;
20283;SDS011;10301;50.832;4.080;2024-03-06T11:53:01;22.73;;;8.32;;
20283;SDS011;10301;50.832;4.080;2024-03-06T11:55:27;14.32;;;8.45;;
20283;SDS011;10301;50.832;4.080;2024-03-06T11:57:53;17.30;;;9.25;;
20283;SDS011;10301;50.832;4.080;2024-03-06T12:00:21;12.48;;;8.80;;
20283;SDS011;10301;50.832;4.080;2024-03-06T12:02:48;13.15;;;8.98;;
20283;SDS011;10301;50.832;4.080;2024-03-06T12:05:15;14.68;;;8.40;;
20283;SDS011;10301;50.832;4.080;2024-03-06T12:07:47;12.65;;;8.43;;
20283;SDS011;10301;50.832;4.080;2024-03-06T12:10:15;11.45;;;7.85;;
20283;SDS011;10301;50.832;4.080;2024-03-06T12:12:41;12.52;;;7.80;;
20283;SDS011;10301;50.832;4.080;2024-03-06T12:15:10;13.90;;;7.72;;
20283;SDS011;10301;50.832;4.080;2024-03-06T12:17:46;9.82;;;6.63;;
20283;SDS011;10301;50.832;4.080;2024-03-06T12:20:13;10.63;;;6.43;;
20283;SDS011;10301;50.832;4.080;2024-03-06T12:22:48;10.90;;;6.50;;
20283;SDS011;10301;50.832;4.080;2024-03-06T12:25:22;9.27;;;6.35;;
20283;SDS011;10301;50.832;4.080;2024-03-06T12:27:50;12.00;;;6.63;;
20283;SDS011;10301;50.832;4.080;2024-03-06T12:30:17;11.40;;;6.90;;
20283;SDS011;10301;50.832;4.080;2024-03-06T12:32:56;13.30;;;6.60;;
20283;SDS011;10301;50.832;4.080;2024-03-06T12:35:26;9.43;;;6.15;;
20283;SDS011;10301;50.832;4.080;2024-03-06T12:37:52;12.80;;;6.65;;
20283;SDS011;10301;50.832;4.080;2024-03-06T12:40:18;9.75;;;6.25;;
20283;SDS011;10301;50.832;4.080;2024-03-06T12:42:44;11.60;;;7.25;;
20283;SDS011;10301;50.832;4.080;2024-03-06T12:45:11;10.90;;;6.40;;
20283;SDS011;10301;50.832;4.080;2024-03-06T12:47:40;9.20;;;5.75;;
20283;SDS011;10301;50.832;4.080;2024-03-06T12:50:06;13.10;;;6.95;;
20283;SDS011;10301;50.832;4.080;2024-03-06T12:52:36;12.30;;;6.97;;
20283;SDS011;10301;50.832;4.080;2024-03-06T12:55:02;12.57;;;5.75;;
20283;SDS011;10301;50.832;4.080;2024-03-06T12:57:30;14.15;;;5.80;;
20283;SDS011;10301;50.832;4.080;2024-03-06T12:59:56;8.55;;;5.10;;
20283;SDS011;10301;50.832;4.080;2024-03-06T13:02:22;10.27;;;5.38;;
20283;SDS011;10301;50.832;4.080;2024-03-06T13:04:48;11.38;;;6.00;;
20283;SDS011;10301;50.832;4.080;2024-03-06T13:07:13;11.50;;;6.22;;
20283;SDS011;10301;50.832;4.080;2024-03-06T13:09:39;13.20;;;6.30;;
20283;SDS011;10301;50.832;4.080;2024-03-06T13:12:05;11.20;;;6.15;;
20283;SDS011;10301;50.832;4.080;2024-03-06T13:14:31;9.73;;;5.75;;
20283;SDS011;10301;50.832;4.080;2024-03-06T13:16:57;11.82;;;5.82;;
20283;SDS011;10301;50.832;4.080;2024-03-06T13:19:23;9.60;;;5.72;;
20283;SDS011;10301;50.832;4.080;2024-03-06T13:21:49;9.90;;;5.38;;
20283;SDS011;10301;50.832;4.080;2024-03-06T13:24:14;10.15;;;5.97;;
20283;SDS011;10301;50.832;4.080;2024-03-06T13:26:40;10.57;;;5.30;;
20283;SDS011;10301;50.832;4.080;2024-03-06T13:29:09;9.18;;;5.30;;
20283;SDS011;10301;50.832;4.080;2024-03-06T13:31:34;9.10;;;5.00;;
20283;SDS011;10301;50.832;4.080;2024-03-06T13:34:01;7.97;;;4.75;;
20283;SDS011;10301;50.832;4.080;2024-03-06T13:36:28;10.18;;;4.82;;
20283;SDS011;10301;50.832;4.080;2024-03-06T13:38:54;10.48;;;4.72;;
20283;SDS011;10301;50.832;4.080;2024-03-06T13:41:19;9.05;;;4.57;;
20283;SDS011;10301;50.832;4.080;2024-03-06T13:43:45;7.13;;;4.57;;
20283;SDS011;10301;50.832;4.080;2024-03-06T13:46:11;7.80;;;4.60;;
20283;SDS011;10301;50.832;4.080;2024-03-06T13:48:37;10.93;;;4.60;;
20283;SDS011;10301;50.832;4.080;2024-03-06T13:51:02;8.80;;;4.53;;
20283;SDS011;10301;50.832;4.080;2024-03-06T13:53:29;9.85;;;4.57;;
20283;SDS011;10301;50.832;4.080;2024-03-06T13:55:55;8.95;;;4.60;;
20283;SDS011;10301;50.832;4.080;2024-03-06T13:58:21;11.93;;;4.85;;
20283;SDS011;10301;50.832;4.080;2024-03-06T14:00:47;8.90;;;4.43;;
20283;SDS011;10301;50.832;4.080;2024-03-06T14:03:12;6.80;;;3.70;;
20283;SDS011;10301;50.832;4.080;2024-03-06T14:05:38;7.55;;;4.20;;
20283;SDS011;10301;50.832;4.080;2024-03-06T14:08:04;7.60;;;4.20;;
20283;SDS011;10301;50.832;4.080;2024-03-06T14:10:30;8.30;;;3.90;;
20283;SDS011;10301;50.832;4.080;2024-03-06T14:12:59;11.27;;;4.78;;
20283;SDS011;10301;50.832;4.080;2024-03-06T14:15:25;9.32;;;4.47;;
20283;SDS011;10301;50.832;4.080;2024-03-06T14:17:52;8.45;;;3.65;;
20283;SDS011;10301;50.832;4.080;2024-03-06T14:20:22;8.07;;;4.93;;
20283;SDS011;10301;50.832;4.080;2024-03-06T14:22:49;9.68;;;5.05;;
20283;SDS011;10301;50.832;4.080;2024-03-06T14:25:14;8.07;;;3.83;;
20283;SDS011;10301;50.832;4.080;2024-03-06T14:27:41;9.02;;;4.28;;
20283;SDS011;10301;50.832;4.080;2024-03-06T14:30:07;7.47;;;3.70;;
20283;SDS011;10301;50.832;4.080;2024-03-06T14:32:33;6.50;;;3.83;;
20283;SDS011;10301;50.832;4.080;2024-03-06T14:34:59;8.10;;;3.75;;
20283;SDS011;10301;50.832;4.080;2024-03-06T14:37:25;7.28;;;4.10;;
20283;SDS011;10301;50.832;4.080;2024-03-06T14:39:51;9.23;;;4.38;;
20283;SDS011;10301;50.832;4.080;2024-03-06T14:42:17;8.50;;;4.30;;